Time;durP1;ratioP1;P1;durP2;ratioP2;P2;SDS_P1;SDS_P2;PMS_P1;PMS_P2;Temp;Humidity;BMP_temperature;BMP_pressure;BME280_temperature;BME280_humidity;BME280_pressure;Samples;Min_cycle;Max_cycle;Signal;HPM_P1;HPM_P2
2023/05/24 00:01:08;;;;;;;10.25;1.75;;;10.80;99.90;;;;;;5023148;28;20487;-72
2023/05/24 00:03:37;;;;;;;4.55;1.45;;;10.80;99.90;;;;;;5021552;28;20068;-73
2023/05/24 00:06:05;;;;;;;11.90;3.40;;;10.80;99.90;;;;;;5022419;28;20068;-73
2023/05/24 00:08:32;;;;;;;8.57;2.53;;;10.80;99.90;;;;;;5023013;28;20048;-73
2023/05/24 00:10:57;;;;;;;5.93;1.80;;;10.80;99.90;;;;;;5022362;28;20033;-73
2023/05/24 00:13:23;;;;;;;4.85;1.50;;;10.80;99.90;;;;;;5026796;28;20545;-73
2023/05/24 00:15:49;;;;;;;3.08;1.73;;;10.80;99.90;;;;;;5026061;28;20037;-73
2023/05/24 00:18:17;;;;;;;9.68;1.38;;;10.80;99.90;;;;;;5025326;28;21054;-72
2023/05/24 00:20:43;;;;;;;7.75;1.75;;;10.80;99.90;;;;;;5025748;28;20494;-72
2023/05/24 00:23:08;;;;;;;2.95;1.55;;;10.80;99.90;;;;;;5026222;28;20045;-73
2023/05/24 00:25:34;;;;;;;5.55;1.45;;;10.80;99.90;;;;;;5024181;28;20040;-73
2023/05/24 00:28:00;;;;;;;6.25;1.77;;;10.80;99.90;;;;;;5024807;28;20100;-73
2023/05/24 00:30:26;;;;;;;7.05;1.65;;;10.80;99.90;;;;;;5026264;28;20577;-74
2023/05/24 00:32:51;;;;;;;5.68;1.23;;;10.80;99.90;;;;;;5012325;28;20038;-73
2023/05/24 00:35:17;;;;;;;6.15;1.70;;;10.80;99.90;;;;;;5005277;28;20049;-72
2023/05/24 00:37:44;;;;;;;8.02;1.90;;;10.80;99.90;;;;;;5004451;28;20377;-73
2023/05/24 00:40:11;;;;;;;3.50;1.45;;;10.80;99.90;;;;;;5005770;28;20050;-73
2023/05/24 00:42:37;;;;;;;5.88;1.75;;;10.70;99.90;;;;;;5006038;28;20420;-73
2023/05/24 00:45:03;;;;;;;11.30;1.48;;;10.80;99.90;;;;;;5005899;28;20049;-73
2023/05/24 00:47:28;;;;;;;6.68;1.90;;;10.80;99.90;;;;;;5024421;28;20043;-73
2023/05/24 00:49:54;;;;;;;9.30;2.17;;;10.80;99.90;;;;;;5024981;28;20084;-73
2023/05/24 00:52:20;;;;;;;9.48;2.30;;;10.80;99.90;;;;;;5026305;28;20037;-73
2023/05/24 00:54:46;;;;;;;3.45;1.30;;;10.80;99.90;;;;;;5025137;28;20412;-73
2023/05/24 00:57:12;;;;;;;7.60;2.00;;;10.80;99.90;;;;;;5025304;28;20042;-73
2023/05/24 00:59:39;;;;;;;7.68;1.20;;;10.80;99.90;;;;;;5023016;28;20104;-73
2023/05/24 01:02:05;;;;;;;2.10;1.42;;;10.80;99.90;;;;;;5025489;28;20052;-73
2023/05/24 01:04:31;;;;;;;10.80;2.25;;;10.80;99.90;;;;;;5007470;28;20033;-72
2023/05/24 01:07:12;;;;;;;4.20;1.65;;;10.80;99.90;;;;;;5025080;28;20700;-74
2023/05/24 01:09:55;;;;;;;5.90;2.03;;;10.80;99.90;;;;;;5024106;28;20629;-73
2023/05/24 01:12:27;;;;;;;4.97;1.70;;;10.80;99.90;;;;;;5024454;28;20060;-73
2023/05/24 01:15:07;;;;;;;7.78;1.70;;;10.80;99.90;;;;;;5024610;28;20045;-73
2023/05/24 01:17:45;;;;;;;2.95;1.25;;;10.80;99.90;;;;;;5024988;28;20693;-73
2023/05/24 01:20:12;;;;;;;11.07;2.75;;;10.80;99.90;;;;;;5025165;28;20123;-72
2023/05/24 01:23:18;;;;;;;9.13;2.10;;;10.80;99.90;;;;;;5023288;28;20048;-73
2023/05/24 01:26:13;;;;;;;5.57;1.73;;;10.90;99.90;;;;;;5023818;28;20527;-73
2023/05/24 01:28:39;;;;;;;6.03;1.45;;;10.80;99.90;;;;;;5023407;28;20045;-73
2023/05/24 01:31:06;;;;;;;5.00;1.60;;;10.90;99.90;;;;;;5024963;28;20087;-73
2023/05/24 01:33:32;;;;;;;4.78;1.70;;;10.80;99.90;;;;;;5024658;28;20073;-73
2023/05/24 01:35:58;;;;;;;9.52;2.78;;;10.80;99.90;;;;;;5024997;28;20100;-74
2023/05/24 01:38:23;;;;;;;3.10;1.33;;;10.80;99.90;;;;;;5023783;28;20041;-73
2023/05/24 01:40:56;;;;;;;5.43;2.20;;;10.80;99.90;;;;;;5023685;28;20139;-72
2023/05/24 01:43:42;;;;;;;3.92;1.58;;;10.80;99.90;;;;;;5024911;28;20041;-73
2023/05/24 01:46:28;;;;;;;3.33;1.35;;;10.90;99.90;;;;;;5014817;28;20512;-73
2023/05/24 01:49:19;;;;;;;7.13;2.40;;;10.90;99.90;;;;;;5005423;28;20046;-73
2023/05/24 01:51:50;;;;;;;4.13;1.70;;;10.80;99.90;;;;;;5002946;28;20072;-72
2023/05/24 01:54:22;;;;;;;7.82;1.42;;;10.90;99.90;;;;;;5003570;28;20915;-73
2023/05/24 01:56:48;;;;;;;7.05;1.52;;;10.90;99.90;;;;;;5007145;28;20038;-73
2023/05/24 01:59:14;;;;;;;13.18;2.90;;;10.90;99.90;;;;;;5022722;28;20049;-73
2023/05/24 02:01:43;;;;;;;15.32;2.10;;;10.90;99.90;;;;;;5024121;28;20042;-73
2023/05/24 02:04:09;;;;;;;11.27;3.17;;;10.90;99.90;;;;;;5024088;28;20314;-73
2023/05/24 02:06:34;;;;;;;8.57;2.30;;;10.90;99.90;;;;;;5022365;28;20106;-73
2023/05/24 02:09:00;;;;;;;7.13;1.48;;;10.90;99.90;;;;;;5024010;28;20571;-73
2023/05/24 02:11:26;;;;;;;5.93;1.80;;;10.80;99.90;;;;;;5023461;28;20392;-74
2023/05/24 02:13:52;;;;;;;3.53;1.55;;;10.90;99.90;;;;;;5023894;28;20045;-73
2023/05/24 02:16:17;;;;;;;3.55;1.23;;;10.90;99.90;;;;;;5024642;28;20057;-73
2023/05/24 02:18:43;;;;;;;5.25;2.63;;;10.80;99.90;;;;;;5023735;28;20037;-73
2023/05/24 02:21:09;;;;;;;3.63;1.52;;;10.80;99.90;;;;;;5024247;28;20435;-72
2023/05/24 02:23:36;;;;;;;9.27;2.45;;;10.80;99.90;;;;;;5023620;28;20033;-73
2023/05/24 02:26:01;;;;;;;2.05;1.27;;;10.80;99.90;;;;;;5017751;28;20050;-73
2023/05/24 02:28:28;;;;;;;4.07;1.83;;;10.80;99.90;;;;;;5004118;28;20152;-73
2023/05/24 02:30:54;;;;;;;6.22;2.53;;;10.80;99.90;;;;;;5004317;28;20053;-73
2023/05/24 02:33:20;;;;;;;6.38;1.48;;;10.80;99.90;;;;;;5003295;28;20053;-72
2023/05/24 02:35:45;;;;;;;6.63;3.30;;;10.80;99.90;;;;;;5002418;28;20081;-73
2023/05/24 02:38:11;;;;;;;8.88;2.10;;;10.80;99.90;;;;;;5002742;28;20041;-73
2023/05/24 02:40:36;;;;;;;7.70;1.75;;;10.80;99.90;;;;;;5001521;28;20045;-73
2023/05/24 02:43:02;;;;;;;7.00;2.50;;;10.80;99.90;;;;;;5004092;28;20096;-72
2023/05/24 02:45:27;;;;;;;4.50;2.22;;;10.70;99.90;;;;;;5007115;28;20045;-73
2023/05/24 02:47:53;;;;;;;7.80;1.73;;;10.70;99.90;;;;;;5022836;28;20048;-73
2023/05/24 02:50:18;;;;;;;7.05;1.67;;;10.70;99.90;;;;;;5022102;28;20515;-73
2023/05/24 02:52:44;;;;;;;4.88;1.20;;;10.70;99.90;;;;;;5023564;28;20382;-73
2023/05/24 02:55:10;;;;;;;2.67;1.33;;;10.70;99.90;;;;;;5022342;28;20144;-73
2023/05/24 02:57:37;;;;;;;5.15;1.40;;;10.70;99.90;;;;;;5022927;28;20045;-73
2023/05/24 03:00:06;;;;;;;4.10;1.98;;;10.70;99.90;;;;;;5023603;28;20037;-72
2023/05/24 03:02:37;;;;;;;2.25;1.55;;;10.70;99.90;;;;;;5021353;28;20042;-73
2023/05/24 03:05:02;;;;;;;6.32;1.10;;;10.70;99.90;;;;;;5021975;28;20045;-73
2023/05/24 03:07:28;;;;;;;9.00;1.83;;;10.70;99.90;;;;;;5021829;28;20123;-73
2023/05/24 03:09:54;;;;;;;6.25;2.17;;;10.60;99.90;;;;;;5021349;28;20045;-73
2023/05/24 03:12:19;;;;;;;4.88;1.27;;;10.60;99.90;;;;;;5023623;28;20076;-73
2023/05/24 03:14:45;;;;;;;12.05;3.25;;;10.60;99.90;;;;;;5022876;28;20131;-73
2023/05/24 03:17:10;;;;;;;5.70;1.92;;;10.60;99.90;;;;;;5023812;28;20112;-73
2023/05/24 03:19:36;;;;;;;4.53;1.27;;;10.60;99.90;;;;;;5022510;28;20037;-73
2023/05/24 03:22:02;;;;;;;3.97;1.23;;;10.60;99.90;;;;;;5021972;28;20053;-73
2023/05/24 03:24:27;;;;;;;5.10;1.95;;;10.60;99.90;;;;;;5012896;28;20060;-73
2023/05/24 03:26:53;;;;;;;4.60;1.40;;;10.60;99.90;;;;;;5004135;28;20544;-73
2023/05/24 03:29:18;;;;;;;6.85;1.45;;;10.60;99.90;;;;;;5003599;28;20046;-73
2023/05/24 03:31:44;;;;;;;13.15;1.80;;;10.60;99.90;;;;;;5002154;28;20042;-73
2023/05/24 03:34:10;;;;;;;11.65;1.98;;;10.60;99.90;;;;;;5003358;28;20053;-73
2023/05/24 03:36:35;;;;;;;3.50;1.77;;;10.60;99.90;;;;;;5001921;28;20419;-73
2023/05/24 03:39:03;;;;;;;10.73;1.77;;;10.60;99.90;;;;;;5002216;28;20072;-73
2023/05/24 03:41:29;;;;;;;3.10;1.20;;;10.60;99.90;;;;;;5001943;28;20115;-73
2023/05/24 03:43:55;;;;;;;12.00;1.30;;;10.60;99.90;;;;;;5003550;28;20038;-73
2023/05/24 03:46:20;;;;;;;2.80;1.40;;;10.60;99.90;;;;;;5018042;28;20407;-73
2023/05/24 03:48:47;;;;;;;6.05;2.17;;;10.70;99.90;;;;;;5026831;28;20050;-73
2023/05/24 03:51:12;;;;;;;4.38;1.60;;;10.60;99.90;;;;;;5025332;28;20120;-73
2023/05/24 03:53:38;;;;;;;3.97;1.27;;;10.60;99.90;;;;;;5026266;28;20467;-73
2023/05/24 03:56:03;;;;;;;4.40;2.55;;;10.60;99.90;;;;;;5025582;28;20073;-73
2023/05/24 03:58:29;;;;;;;3.50;1.15;;;10.60;99.90;;;;;;5025623;28;20076;-73
2023/05/24 04:00:55;;;;;;;6.82;2.85;;;10.60;99.90;;;;;;5025610;28;20586;-73
2023/05/24 04:03:21;;;;;;;6.47;2.58;;;10.60;99.90;;;;;;5027016;28;20054;-73
2023/05/24 04:05:46;;;;;;;5.43;1.73;;;10.60;99.90;;;;;;5026214;28;20057;-72
2023/05/24 04:08:13;;;;;;;10.10;1.67;;;10.60;99.90;;;;;;5026397;28;20508;-72
2023/05/24 04:10:40;;;;;;;2.75;1.65;;;10.60;99.90;;;;;;5025572;28;20049;-72
2023/05/24 04:13:05;;;;;;;6.70;2.33;;;10.60;99.90;;;;;;5025242;28;20491;-73
2023/05/24 04:15:31;;;;;;;7.00;1.75;;;10.60;99.90;;;;;;5026097;28;20175;-73
2023/05/24 04:17:57;;;;;;;4.43;1.30;;;10.60;99.90;;;;;;5025194;28;20050;-74
2023/05/24 04:20:24;;;;;;;4.15;1.17;;;10.60;99.90;;;;;;5027129;28;20056;-72
2023/05/24 04:22:50;;;;;;;4.30;1.58;;;10.60;99.90;;;;;;5015742;28;20096;-73
2023/05/24 04:25:15;;;;;;;5.13;1.40;;;10.60;99.90;;;;;;5005951;28;20057;-72
2023/05/24 04:27:41;;;;;;;5.30;1.48;;;10.60;99.90;;;;;;5006210;28;20499;-73
2023/05/24 04:30:08;;;;;;;2.83;1.20;;;10.60;99.90;;;;;;5006581;28;20107;-73
2023/05/24 04:32:33;;;;;;;5.15;1.10;;;10.70;99.90;;;;;;5004428;28;20045;-73
2023/05/24 04:35:01;;;;;;;4.88;1.50;;;10.70;99.90;;;;;;5006651;28;20404;-73
2023/05/24 04:37:28;;;;;;;4.40;2.30;;;10.70;99.90;;;;;;5005179;28;20069;-73
2023/05/24 04:39:53;;;;;;;7.25;1.48;;;10.80;99.90;;;;;;5005494;28;20077;-73
2023/05/24 04:42:19;;;;;;;6.97;2.83;;;10.80;99.90;;;;;;5006159;28;20742;-73
2023/05/24 04:44:45;;;;;;;3.83;2.15;;;10.80;99.90;;;;;;5006278;28;20088;-73
2023/05/24 04:47:11;;;;;;;7.53;1.88;;;10.90;99.90;;;;;;5024437;28;20072;-73
2023/05/24 04:49:38;;;;;;;7.05;1.55;;;10.90;99.90;;;;;;5025992;28;20041;-73
2023/05/24 04:52:04;;;;;;;4.38;1.83;;;10.90;99.90;;;;;;5025060;28;20125;-73
2023/05/24 04:54:29;;;;;;;11.43;1.88;;;10.90;99.90;;;;;;5024757;28;20124;-72
2023/05/24 04:56:55;;;;;;;6.50;2.10;;;10.90;99.90;;;;;;5024907;28;20569;-73
2023/05/24 04:59:21;;;;;;;9.73;1.67;;;11.00;99.90;;;;;;5025896;28;20037;-73
2023/05/24 05:01:47;;;;;;;6.18;2.10;;;11.00;99.90;;;;;;5012788;28;20124;-73
2023/05/24 05:04:15;;;;;;;2.63;1.80;;;11.00;99.90;;;;;;5005158;28;20130;-75
2023/05/24 05:06:43;;;;;;;6.68;1.45;;;11.10;99.90;;;;;;5005360;28;20148;-73
2023/05/24 05:09:11;;;;;;;7.35;1.48;;;11.10;99.90;;;;;;5012223;28;20045;-74
2023/05/24 05:11:37;;;;;;;3.70;2.05;;;11.10;99.90;;;;;;5024944;28;20049;-73
2023/05/24 05:14:03;;;;;;;5.28;1.77;;;11.20;99.90;;;;;;5014698;28;20034;-73
2023/05/24 05:16:29;;;;;;;6.03;2.83;;;11.20;99.90;;;;;;5018749;28;20916;-73
2023/05/24 05:18:55;;;;;;;6.13;1.60;;;11.30;99.90;;;;;;5025703;28;20415;-73
2023/05/24 05:21:20;;;;;;;4.20;1.05;;;11.30;99.90;;;;;;5018552;28;20508;-72
2023/05/24 05:23:46;;;;;;;3.28;1.45;;;11.30;99.90;;;;;;5020946;28;20108;-72
2023/05/24 05:26:11;;;;;;;10.07;1.40;;;11.30;99.90;;;;;;5023634;28;20681;-73
2023/05/24 05:28:37;;;;;;;6.10;1.77;;;11.30;99.90;;;;;;5008331;28;20400;-73
2023/05/24 05:31:03;;;;;;;7.13;0.98;;;11.30;99.90;;;;;;5006450;28;20154;-73
2023/05/24 05:33:30;;;;;;;6.80;1.50;;;11.30;99.90;;;;;;5015311;28;20029;-72
2023/05/24 05:35:56;;;;;;;4.18;1.60;;;11.30;99.90;;;;;;4999705;28;20061;-73
2023/05/24 05:38:22;;;;;;;4.63;1.15;;;11.40;99.90;;;;;;5010369;28;20033;-70
2023/05/24 05:40:47;;;;;;;15.15;2.55;;;11.40;99.90;;;;;;5010119;28;20038;-71
2023/05/24 05:43:13;;;;;;;7.13;1.15;;;11.40;99.90;;;;;;5011866;28;20044;-72
2023/05/24 05:45:39;;;;;;;3.25;1.67;;;11.40;99.90;;;;;;5012895;28;20124;-72
2023/05/24 05:48:04;;;;;;;8.95;1.70;;;11.50;99.90;;;;;;5019194;28;20042;-71
2023/05/24 05:50:30;;;;;;;8.90;1.92;;;11.50;99.90;;;;;;5023557;28;21914;-71
2023/05/24 05:52:56;;;;;;;5.82;2.10;;;11.50;99.90;;;;;;5011055;28;20599;-73
2023/05/24 05:55:22;;;;;;;5.30;1.45;;;11.60;99.90;;;;;;5021487;28;20376;-71
2023/05/24 05:57:48;;;;;;;4.80;2.58;;;11.60;99.90;;;;;;5023425;28;20045;-71
2023/05/24 06:00:14;;;;;;;3.25;1.10;;;11.60;99.90;;;;;;5024240;28;20079;-71
2023/05/24 06:02:39;;;;;;;3.55;1.58;;;11.70;99.90;;;;;;5022757;28;20067;-71
2023/05/24 06:05:05;;;;;;;3.42;1.25;;;11.70;99.90;;;;;;5007428;28;20050;-71
2023/05/24 06:07:31;;;;;;;2.88;1.08;;;11.60;99.90;;;;;;5004090;28;20050;-71
2023/05/24 06:09:57;;;;;;;4.60;2.28;;;11.70;99.90;;;;;;5003588;28;20100;-71
2023/05/24 06:12:22;;;;;;;7.43;1.50;;;11.60;99.90;;;;;;5003426;28;20053;-71
2023/05/24 06:14:49;;;;;;;5.60;1.23;;;11.70;99.90;;;;;;5004473;28;20492;-71
2023/05/24 06:17:15;;;;;;;4.15;1.88;;;11.60;99.90;;;;;;5013021;28;20053;-71
2023/05/24 06:19:42;;;;;;;4.15;1.30;;;11.70;99.90;;;;;;5017624;28;20132;-70
2023/05/24 06:22:08;;;;;;;3.58;1.50;;;11.70;99.90;;;;;;5022240;28;20084;-71
2023/05/24 06:24:34;;;;;;;3.30;0.70;;;11.70;99.90;;;;;;5024448;28;20332;-71
2023/05/24 06:26:59;;;;;;;6.20;2.08;;;11.70;99.90;;;;;;5021816;28;20045;-71
2023/05/24 06:29:25;;;;;;;7.50;1.35;;;11.70;99.90;;;;;;5023325;28;20048;-71
2023/05/24 06:31:51;;;;;;;6.32;2.65;;;11.70;99.90;;;;;;5018576;28;20041;-71
2023/05/24 06:34:19;;;;;;;4.68;0.80;;;11.80;99.90;;;;;;5012837;28;20033;-71
2023/05/24 06:36:47;;;;;;;1.90;1.08;;;11.80;99.90;;;;;;5011915;28;20132;-71
2023/05/24 06:39:14;;;;;;;4.43;1.27;;;11.80;99.90;;;;;;5002668;28;20076;-71
2023/05/24 06:41:41;;;;;;;3.35;1.17;;;11.80;99.90;;;;;;5000524;28;20192;-72
2023/05/24 06:44:07;;;;;;;5.30;1.58;;;11.80;99.90;;;;;;5001421;28;20086;-71
2023/05/24 06:46:33;;;;;;;3.60;1.00;;;11.80;99.90;;;;;;5015933;28;20033;-71
2023/05/24 06:48:59;;;;;;;6.47;1.98;;;11.80;99.90;;;;;;5022408;28;20049;-72
2023/05/24 06:51:25;;;;;;;3.13;1.45;;;11.90;99.90;;;;;;5020064;28;20037;-71
2023/05/24 06:53:51;;;;;;;6.80;1.80;;;11.90;99.90;;;;;;5021975;28;20057;-73
2023/05/24 06:56:17;;;;;;;2.65;1.45;;;11.90;99.90;;;;;;5022149;28;20445;-71
2023/05/24 06:58:43;;;;;;;3.30;1.65;;;12.00;99.90;;;;;;5003696;28;20030;-71
2023/05/24 07:01:09;;;;;;;3.03;1.45;;;12.00;99.90;;;;;;5022291;28;20077;-71
2023/05/24 07:03:35;;;;;;;1.60;1.00;;;12.00;99.90;;;;;;5021328;28;20233;-72
2023/05/24 07:06:00;;;;;;;1.92;0.98;;;11.90;99.90;;;;;;5022223;28;20441;-71
2023/05/24 07:08:26;;;;;;;6.32;2.45;;;11.90;99.90;;;;;;5021543;28;20507;-72
2023/05/24 07:10:55;;;;;;;5.07;1.50;;;11.90;99.90;;;;;;5021088;28;20377;-73
2023/05/24 07:13:21;;;;;;;4.72;0.88;;;12.00;99.90;;;;;;5020964;28;20577;-71
2023/05/24 07:15:48;;;;;;;3.58;0.93;;;12.00;99.90;;;;;;5021800;28;20096;-71
2023/05/24 07:18:14;;;;;;;6.22;1.95;;;12.10;99.90;;;;;;5020767;28;20049;-71
2023/05/24 07:20:40;;;;;;;2.50;1.38;;;12.20;99.90;;;;;;5018672;28;20377;-71
2023/05/24 07:23:05;;;;;;;4.10;1.02;;;12.30;99.90;;;;;;5015875;28;20073;-71
2023/05/24 07:25:32;;;;;;;4.50;1.15;;;12.30;99.90;;;;;;5014518;28;20111;-71
2023/05/24 07:27:58;;;;;;;3.53;1.33;;;12.30;99.90;;;;;;5010430;28;20038;-72
2023/05/24 07:30:24;;;;;;;6.80;1.02;;;12.30;99.90;;;;;;5002938;28;20078;-71
2023/05/24 07:32:50;;;;;;;3.35;0.90;;;12.40;99.90;;;;;;5002265;28;20103;-71
2023/05/24 07:35:16;;;;;;;2.30;0.98;;;12.30;99.90;;;;;;5022438;28;20055;-71
2023/05/24 07:37:41;;;;;;;3.85;1.65;;;12.30;99.90;;;;;;5026937;28;20038;-71
2023/05/24 07:40:11;;;;;;;4.43;1.30;;;12.30;99.90;;;;;;5022736;28;20381;-71
2023/05/24 07:42:37;;;;;;;1.55;1.45;;;12.30;99.90;;;;;;5021640;28;20084;-71
2023/05/24 07:45:04;;;;;;;2.80;0.80;;;12.30;99.90;;;;;;5037782;28;20442;-71
2023/05/24 07:47:30;;;;;;;10.90;1.80;;;12.30;99.90;;;;;;5020630;28;20049;-71
2023/05/24 07:49:55;;;;;;;1.42;1.15;;;12.40;99.90;;;;;;5021540;28;20517;-73
2023/05/24 07:52:22;;;;;;;1.48;0.75;;;12.40;99.90;;;;;;5041494;28;20040;-71
2023/05/24 07:54:47;;;;;;;6.18;1.20;;;12.50;99.90;;;;;;5030757;28;20038;-71
2023/05/24 07:57:13;;;;;;;5.88;0.90;;;12.50;99.90;;;;;;5021881;28;20041;-71
2023/05/24 07:59:39;;;;;;;5.55;1.42;;;12.50;99.90;;;;;;5025123;28;20476;-71
2023/05/24 08:02:05;;;;;;;5.43;1.00;;;12.50;99.90;;;;;;5033616;28;20033;-71
2023/05/24 08:04:32;;;;;;;6.40;1.33;;;12.60;99.90;;;;;;5003738;28;20056;-72
2023/05/24 08:07:00;;;;;;;1.38;0.70;;;12.60;99.90;;;;;;5019944;28;20161;-72
2023/05/24 08:09:26;;;;;;;5.40;1.48;;;12.80;99.90;;;;;;5019606;28;20472;-72
2023/05/24 08:11:52;;;;;;;2.67;1.30;;;12.80;99.90;;;;;;5019520;28;20099;-71
2023/05/24 08:14:18;;;;;;;2.28;1.40;;;12.90;99.90;;;;;;5020303;28;20041;-71
2023/05/24 08:16:43;;;;;;;14.63;1.40;;;12.90;99.90;;;;;;5018873;28;20091;-71
2023/05/24 08:19:09;;;;;;;3.85;1.33;;;12.90;99.90;;;;;;5021766;28;20045;-72
2023/05/24 08:21:36;;;;;;;9.55;1.95;;;13.00;99.90;;;;;;5020705;28;20084;-71
2023/05/24 08:24:01;;;;;;;12.10;2.10;;;13.00;99.90;;;;;;5020048;28;20064;-71
2023/05/24 08:26:27;;;;;;;2.92;1.02;;;13.00;99.90;;;;;;5020943;28;20041;-71
2023/05/24 08:28:52;;;;;;;2.58;1.15;;;13.10;99.90;;;;;;5020369;28;20509;-71
2023/05/24 08:31:18;;;;;;;2.97;0.90;;;13.20;99.90;;;;;;5021756;28;20084;-71
2023/05/24 08:33:43;;;;;;;4.65;1.08;;;13.20;99.90;;;;;;5023980;28;20077;-71
2023/05/24 08:36:09;;;;;;;8.20;1.50;;;13.20;99.90;;;;;;5023742;28;20050;-71
2023/05/24 08:38:35;;;;;;;5.95;1.30;;;13.20;99.90;;;;;;5023093;28;20088;-71
2023/05/24 08:41:05;;;;;;;5.45;1.02;;;13.20;99.90;;;;;;5023803;28;20049;-71
2023/05/24 08:43:32;;;;;;;5.32;0.95;;;13.20;99.90;;;;;;5023534;28;20476;-71
2023/05/24 08:46:00;;;;;;;5.93;1.38;;;13.10;99.90;;;;;;5024508;28;20164;-71
2023/05/24 08:48:27;;;;;;;5.18;1.48;;;13.00;99.90;;;;;;5024612;28;20238;-73
2023/05/24 08:50:53;;;;;;;6.60;2.13;;;13.10;99.90;;;;;;5024553;28;20050;-71
2023/05/24 08:53:21;;;;;;;5.72;1.10;;;13.10;99.90;;;;;;5023629;28;20041;-71
2023/05/24 08:55:48;;;;;;;2.83;0.95;;;13.10;99.90;;;;;;5021829;28;20045;-71
2023/05/24 08:58:15;;;;;;;3.28;1.35;;;13.10;99.90;;;;;;5024593;28;20037;-71
2023/05/24 09:00:41;;;;;;;7.03;1.25;;;13.10;99.90;;;;;;5022965;28;20052;-71
2023/05/24 09:03:08;;;;;;;5.05;1.20;;;13.10;99.90;;;;;;5023616;28;20037;-72
2023/05/24 09:05:34;;;;;;;5.05;1.25;;;13.10;99.90;;;;;;5024061;28;20065;-71
2023/05/24 09:08:01;;;;;;;3.63;1.50;;;13.10;99.90;;;;;;5022913;28;20140;-71
2023/05/24 09:10:28;;;;;;;3.63;1.15;;;13.10;99.90;;;;;;5022901;28;20367;-71
2023/05/24 09:12:59;;;;;;;1.98;1.08;;;13.10;99.90;;;;;;5024744;28;20033;-71
2023/05/24 09:15:25;;;;;;;2.38;1.13;;;13.10;99.90;;;;;;5022831;28;20050;-71
2023/05/24 09:17:51;;;;;;;3.35;1.27;;;13.10;99.90;;;;;;5024115;28;20116;-71
2023/05/24 09:20:17;;;;;;;2.88;1.05;;;13.20;99.90;;;;;;5023005;28;20187;-71
2023/05/24 09:22:47;;;;;;;3.28;1.23;;;13.20;99.90;;;;;;5023350;28;20045;-71
2023/05/24 09:25:13;;;;;;;3.78;0.90;;;13.20;99.90;;;;;;5022825;28;20049;-71
2023/05/24 09:27:39;;;;;;;2.70;1.30;;;13.20;99.90;;;;;;5023518;28;20045;-71
2023/05/24 09:30:09;;;;;;;4.40;1.33;;;13.30;99.90;;;;;;5023096;28;20049;-72
2023/05/24 09:32:35;;;;;;;8.07;1.75;;;13.40;99.90;;;;;;5022324;28;20064;-71
2023/05/24 09:35:01;;;;;;;5.65;1.15;;;13.40;99.90;;;;;;5011730;28;20045;-70
2023/05/24 09:37:28;;;;;;;3.25;0.90;;;13.40;99.90;;;;;;5010709;28;20058;-71
2023/05/24 09:39:54;;;;;;;2.90;1.20;;;13.50;99.90;;;;;;5014562;28;20148;-71
2023/05/24 09:42:29;;;;;;;11.77;1.63;;;13.60;99.90;;;;;;5012967;28;20676;-72
2023/05/24 09:44:59;;;;;;;2.83;1.05;;;13.60;99.90;;;;;;5021947;28;20174;-72
2023/05/24 09:47:29;;;;;;;5.78;1.40;;;13.60;99.90;;;;;;5016292;28;20565;-72
2023/05/24 09:49:55;;;;;;;2.28;1.00;;;13.60;99.90;;;;;;5019617;28;20057;-72
2023/05/24 09:52:21;;;;;;;4.22;1.42;;;13.60;99.90;;;;;;5023610;28;20524;-72
2023/05/24 09:54:47;;;;;;;5.95;1.83;;;13.60;99.90;;;;;;5005048;28;20064;-72
2023/05/24 09:57:16;;;;;;;2.95;1.30;;;13.60;99.90;;;;;;5003659;28;20042;-72
2023/05/24 09:59:43;;;;;;;2.35;1.08;;;13.50;99.90;;;;;;5016380;28;20617;-72
2023/05/24 10:02:10;;;;;;;5.65;1.10;;;13.50;99.90;;;;;;5023087;28;20049;-72
2023/05/24 10:04:36;;;;;;;7.18;1.50;;;13.50;99.90;;;;;;5022868;28;20041;-71
2023/05/24 10:07:03;;;;;;;4.95;1.25;;;13.60;99.90;;;;;;5012347;28;20057;-72
2023/05/24 10:09:32;;;;;;;2.53;1.10;;;13.60;99.90;;;;;;5003813;28;20473;-72
2023/05/24 10:12:03;;;;;;;3.78;1.23;;;13.60;99.90;;;;;;5014027;28;20441;-72
2023/05/24 10:14:32;;;;;;;3.42;1.00;;;13.60;99.90;;;;;;5012126;28;20037;-72
2023/05/24 10:16:58;;;;;;;2.63;1.48;;;13.60;99.90;;;;;;5022993;28;20041;-72
2023/05/24 10:19:24;;;;;;;2.85;1.30;;;13.60;99.90;;;;;;5021301;28;20042;-76
2023/05/24 10:21:52;;;;;;;3.10;1.20;;;13.60;99.90;;;;;;5038571;28;20048;-72
2023/05/24 10:24:24;;;;;;;2.40;1.00;;;13.60;99.90;;;;;;5030300;28;20045;-71
2023/05/24 10:26:51;;;;;;;;;;;13.60;99.90;;;;;;5005762;28;20052;-71
2023/05/24 10:29:41;;;;;;;4.22;1.00;;;13.60;99.90;;;;;;5031321;28;19971;-71
2023/05/24 10:32:07;;;;;;;3.85;0.98;;;13.60;99.90;;;;;;5031156;28;20049;-71
2023/05/24 10:34:34;;;;;;;1.95;1.10;;;13.60;99.90;;;;;;5011927;28;20037;-72
2023/05/24 10:37:00;;;;;;;3.88;1.27;;;13.60;99.90;;;;;;5001266;28;20046;-72
2023/05/24 10:39:27;;;;;;;5.07;1.10;;;13.60;99.90;;;;;;5016445;28;20048;-74
2023/05/24 10:41:55;;;;;;;1.50;0.88;;;13.60;99.90;;;;;;5027623;28;20049;-72
2023/05/24 10:44:21;;;;;;;6.47;1.60;;;13.60;99.90;;;;;;5022747;28;20610;-72
2023/05/24 10:47:08;;;;;;;2.65;1.20;;;13.60;99.90;;;;;;5006902;28;20128;-72
2023/05/24 10:49:35;;;;;;;3.35;1.02;;;13.60;99.90;;;;;;5008968;28;20108;-72
2023/05/24 10:52:06;;;;;;;3.58;1.10;;;13.70;99.90;;;;;;5022045;28;20480;-72
2023/05/24 10:54:31;;;;;;;2.53;0.90;;;13.70;99.90;;;;;;5002342;28;20037;-74
2023/05/24 10:57:03;;;;;;;1.80;1.10;;;13.70;99.90;;;;;;5018852;28;20164;-72
2023/05/24 10:59:36;;;;;;;3.58;0.73;;;13.80;99.90;;;;;;5007219;28;20054;-72
2023/05/24 11:02:08;;;;;;;1.95;1.00;;;13.90;99.90;;;;;;5001450;28;20046;-73
2023/05/24 11:04:41;;;;;;;4.07;1.02;;;14.00;99.90;;;;;;5002197;28;20381;-72
2023/05/24 11:07:10;;;;;;;11.80;1.92;;;14.00;99.90;;;;;;5002963;28;20439;-72
2023/05/24 11:09:44;;;;;;;2.90;0.95;;;14.00;99.90;;;;;;5001640;28;20042;-72
2023/05/24 11:12:14;;;;;;;2.25;0.80;;;14.10;99.90;;;;;;5001963;28;20250;-73
2023/05/24 11:14:39;;;;;;;3.35;1.02;;;14.10;99.90;;;;;;5007219;28;20058;-73
2023/05/24 11:17:06;;;;;;;4.70;1.00;;;14.10;99.90;;;;;;5015830;28;20038;-71
2023/05/24 11:19:37;;;;;;;3.35;1.50;;;14.20;99.90;;;;;;5008490;28;20038;-71
2023/05/24 11:22:05;;;;;;;4.93;1.10;;;14.20;99.90;;;;;;5022240;28;20105;-72
2023/05/24 11:24:31;;;;;;;5.13;0.80;;;14.20;99.90;;;;;;5021173;28;20484;-72
2023/05/24 11:26:59;;;;;;;5.78;1.52;;;14.20;99.90;;;;;;5022269;28;20048;-72
2023/05/24 11:29:25;;;;;;;6.88;1.30;;;14.30;99.90;;;;;;5013620;28;20056;-74
2023/05/24 11:31:53;;;;;;;3.17;0.85;;;14.30;99.90;;;;;;5002990;28;20488;-72
2023/05/24 11:34:20;;;;;;;2.30;1.02;;;14.30;99.90;;;;;;5006520;28;20054;-72
2023/05/24 11:36:46;;;;;;;3.15;0.98;;;14.30;99.90;;;;;;5007101;28;20879;-71
2023/05/24 11:39:13;;;;;;;2.78;1.40;;;14.30;99.90;;;;;;5020910;28;20481;-71
2023/05/24 11:41:39;;;;;;;3.15;1.70;;;14.40;99.90;;;;;;5020443;28;20045;-71
2023/05/24 11:44:08;;;;;;;3.53;1.35;;;14.40;99.90;;;;;;5019395;28;20100;-71
2023/05/24 11:46:34;;;;;;;4.40;1.00;;;14.50;99.90;;;;;;5011971;28;20044;-71
2023/05/24 11:49:00;;;;;;;2.97;1.17;;;14.50;99.90;;;;;;5011865;28;20038;-70
2023/05/24 11:51:30;;;;;;;1.38;1.10;;;14.50;99.90;;;;;;5001387;28;20129;-72
2023/05/24 11:53:57;;;;;;;1.65;0.70;;;14.50;99.90;;;;;;5001622;28;20046;-73
2023/05/24 11:56:28;;;;;;;3.80;1.00;;;14.50;99.90;;;;;;5006816;28;20041;-71
2023/05/24 11:59:12;;;;;;;4.53;1.02;;;14.50;99.90;;;;;;5001566;28;20050;-71
2023/05/24 12:01:38;;;;;;;1.15;1.02;;;14.60;99.90;;;;;;4999957;28;20038;-71
2023/05/24 12:04:08;;;;;;;5.63;1.92;;;14.60;99.90;;;;;;5001666;28;20435;-71
2023/05/24 12:06:42;;;;;;;3.63;0.90;;;14.60;99.90;;;;;;5001656;28;20053;-71
2023/05/24 12:09:14;;;;;;;1.67;1.13;;;14.60;99.90;;;;;;5004843;28;20049;-71
2023/05/24 12:11:41;;;;;;;4.88;0.90;;;14.70;99.90;;;;;;5004904;28;20521;-71
2023/05/24 12:14:12;;;;;;;1.65;0.82;;;14.70;99.90;;;;;;4987334;28;20159;-71
2023/05/24 12:16:38;;;;;;;4.32;1.67;;;14.70;99.90;;;;;;5003763;28;20420;-71
2023/05/24 12:19:04;;;;;;;1.70;1.08;;;14.80;99.90;;;;;;5005070;28;20042;-71
2023/05/24 12:21:31;;;;;;;2.90;0.98;;;14.80;99.90;;;;;;5004844;28;20049;-72
2023/05/24 12:24:13;;;;;;;3.08;0.85;;;14.80;99.90;;;;;;5005393;28;20053;-72
2023/05/24 12:26:43;;;;;;;2.63;1.00;;;14.70;99.90;;;;;;4998031;28;20078;-71
2023/05/24 12:29:13;;;;;;;4.35;1.20;;;14.80;99.90;;;;;;5010207;28;20484;-71
2023/05/24 12:31:40;;;;;;;2.38;0.90;;;14.80;99.90;;;;;;5025194;28;20049;-71
2023/05/24 12:34:07;;;;;;;6.82;1.25;;;14.80;99.90;;;;;;5014794;28;20428;-71
2023/05/24 12:36:35;;;;;;;9.85;1.13;;;14.80;99.90;;;;;;5014507;28;20558;-71
2023/05/24 12:39:16;;;;;;;4.25;0.90;;;14.80;99.90;;;;;;5017279;28;20049;-71
2023/05/24 12:41:42;;;;;;;3.15;0.90;;;14.80;99.90;;;;;;5027620;28;20044;-71
2023/05/24 12:44:10;;;;;;;2.50;0.82;;;14.80;99.90;;;;;;5032070;28;20037;-71
2023/05/24 12:46:35;;;;;;;2.53;1.48;;;14.80;99.90;;;;;;5013619;28;20321;-72